Mekhanik Kraskovsky — UFHZ — position and weather

sailwx.info

Track history (hours):
 
Tides and Currents Weather Stations Pressure Air Temp Water Temp Dewpoint Dewpoint Depression Visibility Wind Speed Wind Dir Waves Ship Positions

Mekhanik Kraskovsky

Last reported at 2017-Dec-11 17:00 UTC. Time now 2017-Dec-13 20:42 UTC.
Position N 62°23' E 005°11'.

Length 85 m; beam 15 m.

Type: Cargo ship. MMSI: 273116000.

Date/timePositionNaut miles runAvg speedWind from/ knotsBaromVisibWave heightAir tempDewpointWater temp
2017-Dec-11 17:00N 62°23' E 005°11'510.8
2017-Dec-11 16:30N 62°19' E 005°04'611.0
2017-Dec-11 16:00N 62°15' E 004°56'510.4
2017-Dec-11 15:30N 62°10' E 004°50'510.5
2017-Dec-11 15:00N 62°06' E 004°43'510.8
2017-Dec-11 14:29N 62°02' E 004°35'511.0
2017-Dec-11 14:00N 61°57' E 004°31'611.5
2017-Dec-11 13:30N 61°51' E 004°30'611.3
2017-Dec-11 13:00N 61°46' E 004°29'611.0
2017-Dec-11 12:30N 61°40' E 004°27'511.0
2017-Dec-11 12:00N 61°35' E 004°26'510.8
2017-Dec-11 11:30N 61°30' E 004°25'510.9
2017-Dec-11 11:00N 61°24' E 004°23'611.0
2017-Dec-11 10:30N 61°19' E 004°22'611.1
2017-Dec-11 10:00N 61°13' E 004°21'612.0
2017-Dec-11 09:30N 61°07' E 004°19'611.7
2017-Dec-11 09:01N 61°01' E 004°18'611.2
2017-Dec-11 08:30N 60°56' E 004°17'611.2
2017-Dec-11 08:00N 60°50' E 004°18'510.8
2017-Dec-11 07:30N 60°45' E 004°20'611.5
2017-Dec-11 07:00N 60°39' E 004°21'511.2
2017-Dec-11 06:30N 60°34' E 004°22'810.8
2017-Dec-11 05:44N 60°25' E 004°25'7611.1
2017-Dec-10 22:53N 59°10' E 004°43'410.6
2017-Dec-10 22:28N 59°06' E 004°46'510.3
2017-Dec-10 21:59N 59°01' E 004°50'510.2
2017-Dec-10 21:30N 58°56' E 004°54'510.0
2017-Dec-10 20:59N 58°52' E 004°58'510.2
2017-Dec-10 20:29N 58°47' E 005°01'510.1
2017-Dec-10 19:57N 58°42' E 005°05'1710.0
2017-Dec-10 18:16N 58°26' E 005°18'310.3
2017-Dec-10 18:00N 58°24' E 005°20'510.2
2017-Dec-10 17:30N 58°20' E 005°27'510.4
2017-Dec-10 17:00N 58°17' E 005°34'510.4
2017-Dec-10 16:30N 58°14' E 005°42'510.8
2017-Dec-10 16:00N 58°10' E 005°50'510.9
2017-Dec-10 15:30N 58°07' E 005°58'611.1
2017-Dec-10 15:00N 58°03' E 006°06'611.6
2017-Dec-10 14:30N 57°59' E 006°14'612.3
2017-Dec-10 14:00N 57°55' E 006°23'812.0
2017-Dec-10 13:22N 57°50' E 006°33'511.0
2017-Dec-10 12:56N 57°48' E 006°41'510.9
2017-Dec-10 12:30N 57°48' E 006°50'611.3
2017-Dec-10 12:00N 57°47' E 007°01'611.1
2017-Dec-10 11:30N 57°47' E 007°11'510.9
2017-Dec-10 11:00N 57°47' E 007°21'510.9
2017-Dec-10 10:30N 57°47' E 007°31'611.0
2017-Dec-10 10:00N 57°46' E 007°42'611.5
2017-Dec-10 09:30N 57°46' E 007°53'510.8
2017-Dec-10 09:00N 57°47' E 008°03'510.4
2017-Dec-10 08:30N 57°47' E 008°13'25 9.9
2017-Dec-10 05:59N 57°48' E 008°59'5 9.4
2017-Dec-10 05:29N 57°48' E 009°08'5 9.1
2017-Dec-10 04:59N 57°48' E 009°17'4 8.3
2017-Dec-10 04:31N 57°48' E 009°24'28 8.9
2017-Dec-10 01:19N 57°48' E 010°17'2 7.8
2017-Dec-10 01:00N 57°48' E 010°22'4 8.1
2017-Dec-10 00:30N 57°48' E 010°29'4 7.7
2017-Dec-10 00:00N 57°48' E 010°37'4 7.6
2017-Dec-09 23:30N 57°48' E 010°44'4 8.0
2017-Dec-09 23:00N 57°45' E 010°47'510.6
2017-Dec-09 22:30N 57°40' E 010°46'144 9.0
2017-Dec-09 06:33N 55°16' E 011°05'0 9.0
2017-Dec-09 06:31N 55°16' E 011°05'4 8.8
2017-Dec-09 06:00N 55°11' E 011°05'5 9.8
2017-Dec-09 05:30N 55°06' E 011°03'510.4
2017-Dec-09 05:00N 55°01' E 011°02'5 9.5
2017-Dec-09 04:30N 54°57' E 010°58'4 8.8
2017-Dec-09 04:00N 54°53' E 010°54'4 9.0
2017-Dec-09 03:31N 54°49' E 010°53'5 9.3
2017-Dec-09 03:00N 54°44' E 010°53'4 7.9
2017-Dec-09 02:30N 54°41' E 010°57'4 8.3
2017-Dec-09 02:00N 54°39' E 011°03'4 8.1
2017-Dec-09 01:30N 54°37' E 011°09'4 8.3
2017-Dec-09 01:01N 54°35' E 011°16'4 8.6
2017-Dec-09 00:30N 54°33' E 011°23'4 8.1
2017-Dec-09 00:00N 54°31' E 011°29'4 7.6
2017-Dec-08 23:30N 54°30' E 011°35'4 7.9
2017-Dec-08 23:00N 54°28' E 011°41'4 7.8
2017-Dec-08 22:30N 54°27' E 011°47'4 7.9
2017-Dec-08 22:00N 54°27' E 011°54'4 7.7
2017-Dec-08 21:30N 54°27' E 012°00'4 7.4
2017-Dec-08 20:58N 54°27' E 012°07'3 6.3
2017-Dec-08 20:30N 54°29' E 012°11'4 7.5
2017-Dec-08 20:00N 54°33' E 012°13'53 8.0
2017-Dec-08 13:21N 54°55' E 013°36'11 7.0
2017-Dec-08 11:44N 54°56' E 013°56'5 7.3
2017-Dec-08 11:06N 54°56' E 014°04'1 6.8
2017-Dec-08 10:53N 54°56' E 014°06'3 7.0
2017-Dec-08 10:26N 54°55' E 014°12'3 6.5
2017-Dec-08 10:00N 54°55' E 014°16'3 6.7
2017-Dec-08 09:30N 54°55' E 014°22'4 7.2
2017-Dec-08 09:00N 54°54' E 014°28'4 7.3
2017-Dec-08 08:30N 54°54' E 014°35'4 7.5
2017-Dec-08 08:00N 54°53' E 014°41'4 7.3
2017-Dec-08 07:30N 54°53' E 014°47'4 7.2
2017-Dec-08 07:00N 54°52' E 014°54'4 7.4
2017-Dec-08 06:30N 54°52' E 015°00'4 8.0
2017-Dec-08 06:00N 54°52' E 015°07'5 7.4
2017-Dec-08 05:21N 54°51' E 015°15'3 6.7
2017-Dec-08 04:56N 54°51' E 015°20'75 5.5
2017-Dec-07 15:20N 54°56' E 017°31'15 4.9
2017-Dec-07 12:17N 54°58' E 017°57'1 3.6
2017-Dec-07 12:00N 54°58' E 017°58'2 4.2
2017-Dec-07 11:27N 54°58' E 018°02'2 4.0
2017-Dec-07 11:00N 54°58' E 018°05'2 4.9
2017-Dec-07 10:30N 54°58' E 018°10'1 2.0
2017-Dec-07 10:00N 54°58' E 018°12'2 5.0
2017-Dec-07 09:31N 54°58' E 018°16'3 5.1
2017-Dec-07 09:00N 54°58' E 018°20'3 5.0
2017-Dec-07 08:30N 54°58' E 018°25'3 5.4
2017-Dec-07 08:00N 54°58' E 018°29'3 5.0
2017-Dec-07 07:30N 54°58' E 018°34'2 4.8
2017-Dec-07 07:00N 54°57' E 018°38'3 5.1
2017-Dec-07 06:30N 54°56' E 018°42'3 5.2
2017-Dec-07 06:00N 54°55' E 018°46'3 5.3
2017-Dec-07 05:30N 54°54' E 018°51'3 5.5
2017-Dec-07 05:01N 54°54' E 018°55'3 6.4
2017-Dec-07 04:30N 54°53' E 019°00'3 6.4
2017-Dec-07 04:00N 54°52' E 019°06'3 6.5
2017-Dec-07 03:30N 54°51' E 019°11'3 6.9
2017-Dec-07 03:00N 54°50' E 019°17'4 7.3
2017-Dec-07 02:30N 54°48' E 019°23'3 6.9
2017-Dec-07 02:00N 54°47' E 019°29'3 6.6
2017-Dec-07 01:30N 54°46' E 019°34'4 7.0
2017-Dec-07 01:00N 54°44' E 019°39'3 6.9
2017-Dec-07 00:31N 54°42' E 019°44'4 7.8
2017-Dec-07 00:00N 54°40' E 019°50'4 7.9
2017-Dec-06 23:30N 54°38' E 019°55'  
2017-Dec-04 10:09N 54°42' E 019°43'1 9.5
2017-Dec-04 10:00N 54°43' E 019°40'5 9.4
2017-Dec-04 09:30N 54°45' E 019°33'5 9.2
2017-Dec-04 09:00N 54°44' E 019°26'5 9.3
2017-Dec-04 08:30N 54°43' E 019°18'5 9.5
2017-Dec-04 08:00N 54°42' E 019°10'5 9.6
2017-Dec-04 07:30N 54°41' E 019°02'4 8.4
2017-Dec-04 07:00N 54°38' E 018°56'5 9.3
2017-Dec-04 06:30N 54°34' E 018°52'4 8.7
2017-Dec-04 06:00N 54°32' E 018°45'5 9.5
2017-Dec-04 05:30N 54°32' E 018°37'2 5.0
2017-Dec-04 05:00N 54°32' E 018°33'0 0.0
2017-Dec-04 04:30N 54°32' E 018°33'0 0.0
2017-Dec-04 04:00N 54°32' E 018°33'0 0.0
2017-Dec-04 03:30N 54°32' E 018°33'0 0.0
2017-Dec-04 03:00N 54°32' E 018°33'0 0.0
2017-Dec-04 02:30N 54°32' E 018°33'0 0.0
2017-Dec-04 02:00N 54°32' E 018°33'0 0.0
2017-Dec-04 01:30N 54°32' E 018°33'0 0.0
2017-Dec-04 01:00N 54°32' E 018°33'0 0.0
2017-Dec-04 00:30N 54°32' E 018°33'0 0.0
2017-Dec-04 00:00N 54°32' E 018°33'0 0.0
2017-Dec-03 23:30N 54°32' E 018°33'0 0.0
2017-Dec-03 23:00N 54°32' E 018°33'0 0.0
2017-Dec-03 22:30N 54°32' E 018°33'0 0.0
2017-Dec-03 22:00N 54°32' E 018°33'0 0.0
2017-Dec-03 21:30N 54°32' E 018°33'0 0.0
2017-Dec-03 21:00N 54°32' E 018°33'0 0.0
2017-Dec-03 20:30N 54°32' E 018°33'0 0.0
2017-Dec-03 20:00N 54°32' E 018°33'0 0.0
2017-Dec-03 19:30N 54°32' E 018°33'0 0.0
2017-Dec-03 19:00N 54°32' E 018°33'0 0.0
2017-Dec-03 18:30N 54°32' E 018°33'0 0.0
2017-Dec-03 18:00N 54°32' E 018°33'0 0.0
2017-Dec-03 17:30N 54°32' E 018°33'0 0.0
2017-Dec-03 17:00N 54°32' E 018°33'0 0.0
2017-Dec-03 16:30N 54°32' E 018°33'0 0.0
2017-Dec-03 16:00N 54°32' E 018°33'0 0.0
2017-Dec-03 15:30N 54°32' E 018°33'0 0.0
2017-Dec-03 15:00N 54°32' E 018°33'0 0.0
2017-Dec-03 14:30N 54°32' E 018°33'0 0.0
2017-Dec-03 14:00N 54°32' E 018°33'0 0.0
2017-Dec-03 13:30N 54°32' E 018°33'0 0.0
2017-Dec-03 13:00N 54°32' E 018°33'0 0.0
2017-Dec-03 12:30N 54°32' E 018°33'0 0.0
2017-Dec-03 12:00N 54°32' E 018°33'0 0.0
2017-Dec-03 11:30N 54°32' E 018°33'0 0.0
2017-Dec-03 11:00N 54°32' E 018°33'0 0.0
2017-Dec-03 10:30N 54°32' E 018°33'0 0.0
2017-Dec-03 10:00N 54°32' E 018°33'0 0.0
2017-Dec-03 09:30N 54°32' E 018°33'0 0.0
2017-Dec-03 09:00N 54°32' E 018°33'0 0.0
2017-Dec-03 08:30N 54°32' E 018°33'0 0.0
2017-Dec-03 08:00N 54°32' E 018°33'0 0.0
2017-Dec-03 07:30N 54°32' E 018°33'0 0.0
2017-Dec-03 07:00N 54°32' E 018°33'0 0.0
2017-Dec-03 06:30N 54°32' E 018°33'0 0.0
2017-Dec-03 06:00N 54°32' E 018°33'0 0.0
2017-Dec-03 05:30N 54°32' E 018°33'0 0.0
2017-Dec-03 05:00N 54°32' E 018°33'0 0.0
2017-Dec-03 04:30N 54°32' E 018°33'0 0.0
2017-Dec-03 04:00N 54°32' E 018°33'0 0.0
2017-Dec-03 03:30N 54°32' E 018°33'0 0.0
2017-Dec-03 03:00N 54°32' E 018°33'0 0.0
2017-Dec-03 02:30N 54°32' E 018°33'0 0.0
2017-Dec-03 02:00N 54°32' E 018°33'0 0.0
2017-Dec-03 01:30N 54°32' E 018°33'0 0.0
2017-Dec-03 01:00N 54°32' E 018°33'0 0.0
2017-Dec-03 00:30N 54°32' E 018°33'0 0.0
2017-Dec-03 00:00N 54°32' E 018°33'0 0.0
2017-Dec-02 23:30N 54°32' E 018°33'0 0.0
2017-Dec-02 23:00N 54°32' E 018°33'0 0.0
2017-Dec-02 22:30N 54°32' E 018°33'0 0.0
2017-Dec-02 22:00N 54°32' E 018°33'0 0.0
2017-Dec-02 21:30N 54°32' E 018°33'0 0.0
2017-Dec-02 21:00N 54°32' E 018°33'0 0.0
2017-Dec-02 20:30N 54°32' E 018°33'0 0.0
2017-Dec-02 20:00N 54°32' E 018°33'0 0.0
2017-Dec-02 19:30N 54°32' E 018°33'0 0.0
2017-Dec-02 19:00N 54°32' E 018°33'0 0.0
2017-Dec-02 18:30N 54°32' E 018°33'0 0.0
2017-Dec-02 18:00N 54°32' E 018°33'0 0.0
2017-Dec-02 17:30N 54°32' E 018°33'0 0.0
2017-Dec-02 17:00N 54°32' E 018°33'0 0.0
2017-Dec-02 16:30N 54°32' E 018°33'0 0.0
2017-Dec-02 16:00N 54°32' E 018°33'0 0.0
2017-Dec-02 15:30N 54°32' E 018°33'0 0.0
2017-Dec-02 15:00N 54°32' E 018°33'0 0.0
2017-Dec-02 14:30N 54°32' E 018°33'0 0.0
2017-Dec-02 14:00N 54°32' E 018°33'0 0.0
2017-Dec-02 13:30N 54°32' E 018°33'0 0.0
2017-Dec-02 13:00N 54°32' E 018°33'0 0.0
2017-Dec-02 12:30N 54°32' E 018°33'0 0.0
2017-Dec-02 12:00N 54°32' E 018°33'0 0.0
2017-Dec-02 11:30N 54°32' E 018°33'0 0.0
2017-Dec-02 11:00N 54°32' E 018°33'0 0.0
2017-Dec-02 10:30N 54°32' E 018°33'0 0.0
2017-Dec-02 10:00N 54°32' E 018°33'0 0.0
2017-Dec-02 09:30N 54°32' E 018°33'0 0.0
2017-Dec-02 09:00N 54°32' E 018°33'0 0.0
2017-Dec-02 08:30N 54°32' E 018°33'0 0.0
2017-Dec-02 08:00N 54°32' E 018°33'0 0.0
2017-Dec-02 07:30N 54°32' E 018°33'0 0.0
2017-Dec-02 07:00N 54°32' E 018°33'0 0.0
2017-Dec-02 06:30N 54°32' E 018°33'0 0.0
2017-Dec-02 06:00N 54°32' E 018°33'0 0.0
2017-Dec-02 05:30N 54°32' E 018°33'0 0.0
2017-Dec-02 05:00N 54°32' E 018°33'0 0.0
2017-Dec-02 04:30N 54°32' E 018°33'0 0.0
2017-Dec-02 04:00N 54°32' E 018°33'0 0.0
2017-Dec-02 03:30N 54°32' E 018°33'0 0.0
2017-Dec-02 03:00N 54°32' E 018°33'0 0.0
2017-Dec-02 02:30N 54°32' E 018°33'0 0.0
2017-Dec-02 02:00N 54°32' E 018°33'0 0.0
2017-Dec-02 01:30N 54°32' E 018°33'0 0.0
2017-Dec-02 01:00N 54°32' E 018°33'0 0.0
2017-Dec-02 00:30N 54°32' E 018°33'0 0.0
2017-Dec-02 00:00N 54°32' E 018°33'0 0.0
2017-Dec-01 23:30N 54°32' E 018°33'0 0.0
2017-Dec-01 23:00N 54°32' E 018°33'0 0.0
2017-Dec-01 22:30N 54°32' E 018°33'0 0.0
2017-Dec-01 22:00N 54°32' E 018°33'0 0.0
2017-Dec-01 21:30N 54°32' E 018°33'0 0.0
2017-Dec-01 21:00N 54°32' E 018°33'0 0.0
2017-Dec-01 20:30N 54°32' E 018°33'0 0.0
2017-Dec-01 20:00N 54°32' E 018°33'0 0.0
2017-Dec-01 19:30N 54°32' E 018°33'0 0.0
2017-Dec-01 19:00N 54°32' E 018°33'0 0.0
2017-Dec-01 18:30N 54°32' E 018°33'0 0.0
2017-Dec-01 18:00N 54°32' E 018°33'0 0.0
2017-Dec-01 17:30N 54°32' E 018°33'  
Track history (hours):
 
Tides and Currents Weather Stations Pressure Air Temp Water Temp Dewpoint Dewpoint Depression Visibility Wind Speed Wind Dir Waves Ship Positions

Mekhanik Kraskovsky

Last reported at 2017-Dec-11 17:00 UTC. Time now 2017-Dec-13 20:42 UTC.
Position N 62°23' E 005°11'.

Length 85 m; beam 15 m.

Type: Cargo ship. MMSI: 273116000.

Date/timePositionNaut miles runAvg speedWind from/ knotsBaromVisibWave heightAir tempDewpointWater temp
2017-Dec-11 17:00N 62°23' E 005°11'510.8
2017-Dec-11 16:30N 62°19' E 005°04'611.0
2017-Dec-11 16:00N 62°15' E 004°56'510.4
2017-Dec-11 15:30N 62°10' E 004°50'510.5
2017-Dec-11 15:00N 62°06' E 004°43'510.8
2017-Dec-11 14:29N 62°02' E 004°35'511.0
2017-Dec-11 14:00N 61°57' E 004°31'611.5
2017-Dec-11 13:30N 61°51' E 004°30'611.3
2017-Dec-11 13:00N 61°46' E 004°29'611.0
2017-Dec-11 12:30N 61°40' E 004°27'511.0
2017-Dec-11 12:00N 61°35' E 004°26'510.8
2017-Dec-11 11:30N 61°30' E 004°25'510.9
2017-Dec-11 11:00N 61°24' E 004°23'611.0
2017-Dec-11 10:30N 61°19' E 004°22'611.1
2017-Dec-11 10:00N 61°13' E 004°21'612.0
2017-Dec-11 09:30N 61°07' E 004°19'611.7
2017-Dec-11 09:01N 61°01' E 004°18'611.2
2017-Dec-11 08:30N 60°56' E 004°17'611.2
2017-Dec-11 08:00N 60°50' E 004°18'510.8
2017-Dec-11 07:30N 60°45' E 004°20'611.5
2017-Dec-11 07:00N 60°39' E 004°21'511.2
2017-Dec-11 06:30N 60°34' E 004°22'810.8
2017-Dec-11 05:44N 60°25' E 004°25'7611.1
2017-Dec-10 22:53N 59°10' E 004°43'410.6
2017-Dec-10 22:28N 59°06' E 004°46'510.3
2017-Dec-10 21:59N 59°01' E 004°50'510.2
2017-Dec-10 21:30N 58°56' E 004°54'510.0
2017-Dec-10 20:59N 58°52' E 004°58'510.2
2017-Dec-10 20:29N 58°47' E 005°01'510.1
2017-Dec-10 19:57N 58°42' E 005°05'1710.0
2017-Dec-10 18:16N 58°26' E 005°18'310.3
2017-Dec-10 18:00N 58°24' E 005°20'510.2
2017-Dec-10 17:30N 58°20' E 005°27'510.4
2017-Dec-10 17:00N 58°17' E 005°34'510.4
2017-Dec-10 16:30N 58°14' E 005°42'510.8
2017-Dec-10 16:00N 58°10' E 005°50'510.9
2017-Dec-10 15:30N 58°07' E 005°58'611.1
2017-Dec-10 15:00N 58°03' E 006°06'611.6
2017-Dec-10 14:30N 57°59' E 006°14'612.3
2017-Dec-10 14:00N 57°55' E 006°23'812.0
2017-Dec-10 13:22N 57°50' E 006°33'511.0
2017-Dec-10 12:56N 57°48' E 006°41'510.9
2017-Dec-10 12:30N 57°48' E 006°50'611.3
2017-Dec-10 12:00N 57°47' E 007°01'611.1
2017-Dec-10 11:30N 57°47' E 007°11'510.9
2017-Dec-10 11:00N 57°47' E 007°21'510.9
2017-Dec-10 10:30N 57°47' E 007°31'611.0
2017-Dec-10 10:00N 57°46' E 007°42'611.5
2017-Dec-10 09:30N 57°46' E 007°53'510.8
2017-Dec-10 09:00N 57°47' E 008°03'510.4
2017-Dec-10 08:30N 57°47' E 008°13'25 9.9
2017-Dec-10 05:59N 57°48' E 008°59'5 9.4
2017-Dec-10 05:29N 57°48' E 009°08'5 9.1
2017-Dec-10 04:59N 57°48' E 009°17'4 8.3
2017-Dec-10 04:31N 57°48' E 009°24'28 8.9
2017-Dec-10 01:19N 57°48' E 010°17'2 7.8
2017-Dec-10 01:00N 57°48' E 010°22'4 8.1
2017-Dec-10 00:30N 57°48' E 010°29'4 7.7
2017-Dec-10 00:00N 57°48' E 010°37'4 7.6
2017-Dec-09 23:30N 57°48' E 010°44'4 8.0
2017-Dec-09 23:00N 57°45' E 010°47'510.6
2017-Dec-09 22:30N 57°40' E 010°46'144 9.0
2017-Dec-09 06:33N 55°16' E 011°05'0 9.0
2017-Dec-09 06:31N 55°16' E 011°05'4 8.8
2017-Dec-09 06:00N 55°11' E 011°05'5 9.8
2017-Dec-09 05:30N 55°06' E 011°03'510.4
2017-Dec-09 05:00N 55°01' E 011°02'5 9.5
2017-Dec-09 04:30N 54°57' E 010°58'4 8.8
2017-Dec-09 04:00N 54°53' E 010°54'4 9.0
2017-Dec-09 03:31N 54°49' E 010°53'5 9.3
2017-Dec-09 03:00N 54°44' E 010°53'4 7.9
2017-Dec-09 02:30N 54°41' E 010°57'4 8.3
2017-Dec-09 02:00N 54°39' E 011°03'4 8.1
2017-Dec-09 01:30N 54°37' E 011°09'4 8.3
2017-Dec-09 01:01N 54°35' E 011°16'4 8.6
2017-Dec-09 00:30N 54°33' E 011°23'4 8.1
2017-Dec-09 00:00N 54°31' E 011°29'4 7.6
2017-Dec-08 23:30N 54°30' E 011°35'4 7.9
2017-Dec-08 23:00N 54°28' E 011°41'4 7.8
2017-Dec-08 22:30N 54°27' E 011°47'4 7.9
2017-Dec-08 22:00N 54°27' E 011°54'4 7.7
2017-Dec-08 21:30N 54°27' E 012°00'4 7.4
2017-Dec-08 20:58N 54°27' E 012°07'3 6.3
2017-Dec-08 20:30N 54°29' E 012°11'4 7.5
2017-Dec-08 20:00N 54°33' E 012°13'53 8.0
2017-Dec-08 13:21N 54°55' E 013°36'11 7.0
2017-Dec-08 11:44N 54°56' E 013°56'5 7.3
2017-Dec-08 11:06N 54°56' E 014°04'1 6.8
2017-Dec-08 10:53N 54°56' E 014°06'3 7.0
2017-Dec-08 10:26N 54°55' E 014°12'3 6.5
2017-Dec-08 10:00N 54°55' E 014°16'3 6.7
2017-Dec-08 09:30N 54°55' E 014°22'4 7.2
2017-Dec-08 09:00N 54°54' E 014°28'4 7.3
2017-Dec-08 08:30N 54°54' E 014°35'4 7.5
2017-Dec-08 08:00N 54°53' E 014°41'4 7.3
2017-Dec-08 07:30N 54°53' E 014°47'4 7.2
2017-Dec-08 07:00N 54°52' E 014°54'4 7.4
2017-Dec-08 06:30N 54°52' E 015°00'4 8.0
2017-Dec-08 06:00N 54°52' E 015°07'5 7.4
2017-Dec-08 05:21N 54°51' E 015°15'3 6.7
2017-Dec-08 04:56N 54°51' E 015°20'75 5.5
2017-Dec-07 15:20N 54°56' E 017°31'15 4.9
2017-Dec-07 12:17N 54°58' E 017°57'1 3.6
2017-Dec-07 12:00N 54°58' E 017°58'2 4.2
2017-Dec-07 11:27N 54°58' E 018°02'2 4.0
2017-Dec-07 11:00N 54°58' E 018°05'2 4.9
2017-Dec-07 10:30N 54°58' E 018°10'1 2.0
2017-Dec-07 10:00N 54°58' E 018°12'2 5.0
2017-Dec-07 09:31N 54°58' E 018°16'3 5.1
2017-Dec-07 09:00N 54°58' E 018°20'3 5.0
2017-Dec-07 08:30N 54°58' E 018°25'3 5.4
2017-Dec-07 08:00N 54°58' E 018°29'3 5.0
2017-Dec-07 07:30N 54°58' E 018°34'2 4.8
2017-Dec-07 07:00N 54°57' E 018°38'3 5.1
2017-Dec-07 06:30N 54°56' E 018°42'3 5.2
2017-Dec-07 06:00N 54°55' E 018°46'3 5.3
2017-Dec-07 05:30N 54°54' E 018°51'3 5.5
2017-Dec-07 05:01N 54°54' E 018°55'3 6.4
2017-Dec-07 04:30N 54°53' E 019°00'3 6.4
2017-Dec-07 04:00N 54°52' E 019°06'3 6.5
2017-Dec-07 03:30N 54°51' E 019°11'3 6.9
2017-Dec-07 03:00N 54°50' E 019°17'4 7.3
2017-Dec-07 02:30N 54°48' E 019°23'3 6.9
2017-Dec-07 02:00N 54°47' E 019°29'3 6.6
2017-Dec-07 01:30N 54°46' E 019°34'4 7.0
2017-Dec-07 01:00N 54°44' E 019°39'3 6.9
2017-Dec-07 00:31N 54°42' E 019°44'4 7.8
2017-Dec-07 00:00N 54°40' E 019°50'4 7.9
2017-Dec-06 23:30N 54°38' E 019°55'  
2017-Dec-04 10:09N 54°42' E 019°43'1 9.5
2017-Dec-04 10:00N 54°43' E 019°40'5 9.4
2017-Dec-04 09:30N 54°45' E 019°33'5 9.2
2017-Dec-04 09:00N 54°44' E 019°26'5 9.3
2017-Dec-04 08:30N 54°43' E 019°18'5 9.5
2017-Dec-04 08:00N 54°42' E 019°10'5 9.6
2017-Dec-04 07:30N 54°41' E 019°02'4 8.4
2017-Dec-04 07:00N 54°38' E 018°56'5 9.3
2017-Dec-04 06:30N 54°34' E 018°52'4 8.7
2017-Dec-04 06:00N 54°32' E 018°45'5 9.5
2017-Dec-04 05:30N 54°32' E 018°37'2 5.0
2017-Dec-04 05:00N 54°32' E 018°33'0 0.0
2017-Dec-04 04:30N 54°32' E 018°33'0 0.0
2017-Dec-04 04:00N 54°32' E 018°33'0 0.0
2017-Dec-04 03:30N 54°32' E 018°33'0 0.0
2017-Dec-04 03:00N 54°32' E 018°33'0 0.0
2017-Dec-04 02:30N 54°32' E 018°33'0 0.0
2017-Dec-04 02:00N 54°32' E 018°33'0 0.0
2017-Dec-04 01:30N 54°32' E 018°33'0 0.0
2017-Dec-04 01:00N 54°32' E 018°33'0 0.0
2017-Dec-04 00:30N 54°32' E 018°33'0 0.0
2017-Dec-04 00:00N 54°32' E 018°33'0 0.0
2017-Dec-03 23:30N 54°32' E 018°33'0 0.0
2017-Dec-03 23:00N 54°32' E 018°33'0 0.0
2017-Dec-03 22:30N 54°32' E 018°33'0 0.0
2017-Dec-03 22:00N 54°32' E 018°33'0 0.0
2017-Dec-03 21:30N 54°32' E 018°33'0 0.0
2017-Dec-03 21:00N 54°32' E 018°33'0 0.0
2017-Dec-03 20:30N 54°32' E 018°33'0 0.0
2017-Dec-03 20:00N 54°32' E 018°33'0 0.0
2017-Dec-03 19:30N 54°32' E 018°33'0 0.0
2017-Dec-03 19:00N 54°32' E 018°33'0 0.0
2017-Dec-03 18:30N 54°32' E 018°33'0 0.0
2017-Dec-03 18:00N 54°32' E 018°33'0 0.0
2017-Dec-03 17:30N 54°32' E 018°33'0 0.0
2017-Dec-03 17:00N 54°32' E 018°33'0 0.0
2017-Dec-03 16:30N 54°32' E 018°33'0 0.0
2017-Dec-03 16:00N 54°32' E 018°33'0 0.0
2017-Dec-03 15:30N 54°32' E 018°33'0 0.0
2017-Dec-03 15:00N 54°32' E 018°33'0 0.0
2017-Dec-03 14:30N 54°32' E 018°33'0 0.0
2017-Dec-03 14:00N 54°32' E 018°33'0 0.0
2017-Dec-03 13:30N 54°32' E 018°33'0 0.0
2017-Dec-03 13:00N 54°32' E 018°33'0 0.0
2017-Dec-03 12:30N 54°32' E 018°33'0 0.0
2017-Dec-03 12:00N 54°32' E 018°33'0 0.0
2017-Dec-03 11:30N 54°32' E 018°33'0 0.0
2017-Dec-03 11:00N 54°32' E 018°33'0 0.0
2017-Dec-03 10:30N 54°32' E 018°33'0 0.0
2017-Dec-03 10:00N 54°32' E 018°33'0 0.0
2017-Dec-03 09:30N 54°32' E 018°33'0 0.0
2017-Dec-03 09:00N 54°32' E 018°33'0 0.0
2017-Dec-03 08:30N 54°32' E 018°33'0 0.0
2017-Dec-03 08:00N 54°32' E 018°33'0 0.0
2017-Dec-03 07:30N 54°32' E 018°33'0 0.0
2017-Dec-03 07:00N 54°32' E 018°33'0 0.0
2017-Dec-03 06:30N 54°32' E 018°33'0 0.0
2017-Dec-03 06:00N 54°32' E 018°33'0 0.0
2017-Dec-03 05:30N 54°32' E 018°33'0 0.0
2017-Dec-03 05:00N 54°32' E 018°33'0 0.0
2017-Dec-03 04:30N 54°32' E 018°33'0 0.0
2017-Dec-03 04:00N 54°32' E 018°33'0 0.0
2017-Dec-03 03:30N 54°32' E 018°33'0 0.0
2017-Dec-03 03:00N 54°32' E 018°33'0 0.0
2017-Dec-03 02:30N 54°32' E 018°33'0 0.0
2017-Dec-03 02:00N 54°32' E 018°33'0 0.0
2017-Dec-03 01:30N 54°32' E 018°33'0 0.0
2017-Dec-03 01:00N 54°32' E 018°33'0 0.0
2017-Dec-03 00:30N 54°32' E 018°33'0 0.0
2017-Dec-03 00:00N 54°32' E 018°33'0 0.0
2017-Dec-02 23:30N 54°32' E 018°33'0 0.0
2017-Dec-02 23:00N 54°32' E 018°33'0 0.0
2017-Dec-02 22:30N 54°32' E 018°33'0 0.0
2017-Dec-02 22:00N 54°32' E 018°33'0 0.0
2017-Dec-02 21:30N 54°32' E 018°33'0 0.0
2017-Dec-02 21:00N 54°32' E 018°33'0 0.0
2017-Dec-02 20:30N 54°32' E 018°33'0 0.0
2017-Dec-02 20:00N 54°32' E 018°33'0 0.0
2017-Dec-02 19:30N 54°32' E 018°33'0 0.0
2017-Dec-02 19:00N 54°32' E 018°33'0 0.0
2017-Dec-02 18:30N 54°32' E 018°33'0 0.0
2017-Dec-02 18:00N 54°32' E 018°33'0 0.0
2017-Dec-02 17:30N 54°32' E 018°33'0 0.0
2017-Dec-02 17:00N 54°32' E 018°33'0 0.0
2017-Dec-02 16:30N 54°32' E 018°33'0 0.0
2017-Dec-02 16:00N 54°32' E 018°33'0 0.0
2017-Dec-02 15:30N 54°32' E 018°33'0 0.0
2017-Dec-02 15:00N 54°32' E 018°33'0 0.0
2017-Dec-02 14:30N 54°32' E 018°33'0 0.0
2017-Dec-02 14:00N 54°32' E 018°33'0 0.0
2017-Dec-02 13:30N 54°32' E 018°33'0 0.0
2017-Dec-02 13:00N 54°32' E 018°33'0 0.0
2017-Dec-02 12:30N 54°32' E 018°33'0 0.0
2017-Dec-02 12:00N 54°32' E 018°33'0 0.0
2017-Dec-02 11:30N 54°32' E 018°33'0 0.0
2017-Dec-02 11:00N 54°32' E 018°33'0 0.0
2017-Dec-02 10:30N 54°32' E 018°33'0 0.0
2017-Dec-02 10:00N 54°32' E 018°33'0 0.0
2017-Dec-02 09:30N 54°32' E 018°33'0 0.0
2017-Dec-02 09:00N 54°32' E 018°33'0 0.0
2017-Dec-02 08:30N 54°32' E 018°33'0 0.0
2017-Dec-02 08:00N 54°32' E 018°33'0 0.0
2017-Dec-02 07:30N 54°32' E 018°33'0 0.0
2017-Dec-02 07:00N 54°32' E 018°33'0 0.0
2017-Dec-02 06:30N 54°32' E 018°33'0 0.0
2017-Dec-02 06:00N 54°32' E 018°33'0 0.0
2017-Dec-02 05:30N 54°32' E 018°33'0 0.0
2017-Dec-02 05:00N 54°32' E 018°33'0 0.0
2017-Dec-02 04:30N 54°32' E 018°33'0 0.0
2017-Dec-02 04:00N 54°32' E 018°33'0 0.0
2017-Dec-02 03:30N 54°32' E 018°33'0 0.0
2017-Dec-02 03:00N 54°32' E 018°33'0 0.0
2017-Dec-02 02:30N 54°32' E 018°33'0 0.0
2017-Dec-02 02:00N 54°32' E 018°33'0 0.0
2017-Dec-02 01:30N 54°32' E 018°33'0 0.0
2017-Dec-02 01:00N 54°32' E 018°33'0 0.0
2017-Dec-02 00:30N 54°32' E 018°33'0 0.0
2017-Dec-02 00:00N 54°32' E 018°33'0 0.0
2017-Dec-01 23:30N 54°32' E 018°33'0 0.0
2017-Dec-01 23:00N 54°32' E 018°33'0 0.0
2017-Dec-01 22:30N 54°32' E 018°33'0 0.0
2017-Dec-01 22:00N 54°32' E 018°33'0 0.0
2017-Dec-01 21:30N 54°32' E 018°33'0 0.0
2017-Dec-01 21:00N 54°32' E 018°33'0 0.0
2017-Dec-01 20:30N 54°32' E 018°33'0 0.0
2017-Dec-01 20:00N 54°32' E 018°33'0 0.0
2017-Dec-01 19:30N 54°32' E 018°33'0 0.0
2017-Dec-01 19:00N 54°32' E 018°33'0 0.0
2017-Dec-01 18:30N 54°32' E 018°33'0 0.0
2017-Dec-01 18:00N 54°32' E 018°33'0 0.0
2017-Dec-01 17:30N 54°32' E 018°33'  

Dump ship's entire track history